createdAt,value
2023-02-24T00:00:38.601Z,12.13
2023-02-24T00:03:11.375Z,11.77
2023-02-24T00:05:42.848Z,11.77
2023-02-24T00:08:11.641Z,12.20
2023-02-24T00:10:40.077Z,11.70
2023-02-24T00:13:12.178Z,11.23
2023-02-24T00:15:40.677Z,12.53
2023-02-24T00:18:09.351Z,11.40
2023-02-24T00:20:37.683Z,11.57
2023-02-24T00:23:06.097Z,11.47
2023-02-24T00:25:34.543Z,13.20
2023-02-24T00:28:02.892Z,12.63
2023-02-24T00:30:33.193Z,12.43
2023-02-24T00:33:02.584Z,11.53
2023-02-24T00:35:30.989Z,10.77
2023-02-24T00:37:59.629Z,10.87
2023-02-24T00:40:30.371Z,12.97
2023-02-24T00:42:59.379Z,10.47
2023-02-24T00:45:31.002Z,10.20
2023-02-24T00:48:00.923Z,11.60
2023-02-24T00:50:29.319Z,10.30
2023-02-24T00:52:57.705Z,10.43
2023-02-24T00:55:28.122Z,10.33
2023-02-24T00:57:56.550Z,10.50
2023-02-24T01:00:25.468Z,10.67
2023-02-24T01:02:53.849Z,9.70
2023-02-24T01:05:23.743Z,9.97
2023-02-24T01:07:52.461Z,10.23
2023-02-24T01:10:23.525Z,9.70
2023-02-24T01:12:50.972Z,9.80
2023-02-24T01:15:22.080Z,9.93
2023-02-24T01:17:50.493Z,10.43
2023-02-24T01:20:19.892Z,10.73
2023-02-24T01:22:53.093Z,9.80
2023-02-24T01:25:21.776Z,10.90
2023-02-24T01:27:50.952Z,11.07
2023-02-24T01:30:20.972Z,11.33
2023-02-24T01:32:49.572Z,11.70
2023-02-24T01:35:19.021Z,11.23
2023-02-24T01:37:47.409Z,11.63
2023-02-24T01:40:21.729Z,11.87
2023-02-24T01:42:50.941Z,13.90
2023-02-24T01:45:26.026Z,11.23
2023-02-24T01:47:57.795Z,12.23
2023-02-24T01:50:27.851Z,11.50
2023-02-24T01:53:02.248Z,11.17
2023-02-24T01:55:36.965Z,11.73
2023-02-24T01:58:09.553Z,10.73
2023-02-24T02:00:45.471Z,11.20
2023-02-24T02:03:26.586Z,11.83
2023-02-24T02:05:59.517Z,11.00
2023-02-24T02:08:28.557Z,11.40
2023-02-24T02:11:04.181Z,11.00
2023-02-24T02:13:35.969Z,10.97
2023-02-24T02:16:25.818Z,10.40
2023-02-24T02:19:02.496Z,9.47
2023-02-24T02:22:05.597Z,10.10
2023-02-24T02:24:53.769Z,10.20
2023-02-24T02:27:58.297Z,9.90
2023-02-24T02:30:55.554Z,9.07
2023-02-24T02:33:56.471Z,8.77
2023-02-24T02:36:34.268Z,9.77
2023-02-24T02:39:09.247Z,9.33
2023-02-24T02:41:48.449Z,9.33
2023-02-24T02:44:22.998Z,9.23
2023-02-24T02:46:58.300Z,8.60
2023-02-24T02:49:33.332Z,9.23
2023-02-24T02:52:10.552Z,9.70
2023-02-24T02:54:45.546Z,9.27
2023-02-24T02:57:18.249Z,9.87
2023-02-24T02:59:52.658Z,9.87
2023-02-24T03:02:29.794Z,10.10
2023-02-24T03:05:02.530Z,11.27
2023-02-24T03:07:35.139Z,10.10
2023-02-24T03:10:10.925Z,10.40
2023-02-24T03:12:42.561Z,10.00
2023-02-24T03:15:14.425Z,10.23
2023-02-24T03:17:46.653Z,11.80
2023-02-24T03:20:22.547Z,10.50
2023-02-24T03:22:57.596Z,10.73
2023-02-24T03:25:30.877Z,10.23
2023-02-24T03:28:06.381Z,10.33
2023-02-24T03:30:43.785Z,10.07
2023-02-24T03:33:19.715Z,10.23
2023-02-24T03:35:51.837Z,12.47
2023-02-24T03:38:24.490Z,10.03
2023-02-24T03:40:53.582Z,9.97
2023-02-24T03:43:26.512Z,9.63
2023-02-24T03:45:55.903Z,10.30
2023-02-24T03:48:26.059Z,10.17
2023-02-24T03:50:56.697Z,11.17
2023-02-24T03:53:35.823Z,10.33
2023-02-24T03:56:22.438Z,10.60
2023-02-24T03:59:06.677Z,9.60
2023-02-24T04:01:42.750Z,10.20
2023-02-24T04:04:16.570Z,9.37
2023-02-24T04:06:55.822Z,9.30
2023-02-24T04:09:33.312Z,9.13
2023-02-24T04:12:09.379Z,9.90
2023-02-24T04:14:48.731Z,10.20
2023-02-24T04:17:21.915Z,10.73
2023-02-24T04:19:53.451Z,9.70
2023-02-24T04:22:25.790Z,10.50
2023-02-24T04:24:59.815Z,10.43
2023-02-24T04:27:29.451Z,10.50
2023-02-24T04:30:02.538Z,10.53
2023-02-24T04:32:32.663Z,9.70
2023-02-24T04:35:06.716Z,10.50
2023-02-24T04:37:37.316Z,11.17
2023-02-24T04:40:11.097Z,10.80
2023-02-24T04:42:46.538Z,11.03
2023-02-24T04:45:17.960Z,10.90
2023-02-24T04:47:49.562Z,10.67
2023-02-24T04:50:24.086Z,10.30
2023-02-24T04:52:54.958Z,11.17
2023-02-24T04:55:29.193Z,11.80
2023-02-24T04:57:58.027Z,10.27
2023-02-24T05:00:29.541Z,12.33
2023-02-24T05:02:59.050Z,11.77
2023-02-24T05:05:27.871Z,11.33
2023-02-24T05:08:03.016Z,12.27
2023-02-24T05:10:33.458Z,12.07
2023-02-24T05:13:02.564Z,12.30
2023-02-24T05:15:32.259Z,12.47
2023-02-24T05:18:01.469Z,13.50
2023-02-24T05:20:47.273Z,12.90
2023-02-24T05:23:17.306Z,12.50
2023-02-24T05:25:46.120Z,13.37
2023-02-24T05:28:14.466Z,13.13
2023-02-24T05:30:42.762Z,13.93
2023-02-24T05:33:11.777Z,13.00
2023-02-24T05:35:40.923Z,13.37
2023-02-24T05:38:09.198Z,13.63
2023-02-24T05:40:46.421Z,13.70
2023-02-24T05:43:18.119Z,12.70
2023-02-24T05:45:46.730Z,12.97
2023-02-24T05:48:15.758Z,13.40
2023-02-24T05:50:47.118Z,13.77
2023-02-24T05:53:15.544Z,13.60
2023-02-24T05:55:45.378Z,14.03
2023-02-24T05:58:16.213Z,13.00
2023-02-24T06:00:46.416Z,13.53
2023-02-24T06:03:17.720Z,15.30
2023-02-24T06:05:53.807Z,15.13
2023-02-24T06:08:24.513Z,14.03
2023-02-24T06:10:54.228Z,14.30
2023-02-24T06:13:22.460Z,13.83
2023-02-24T06:15:57.316Z,12.87
2023-02-24T06:18:25.675Z,13.40
2023-02-24T06:20:54.022Z,14.00
2023-02-24T06:23:22.386Z,13.87
2023-02-24T06:25:50.700Z,12.87
2023-02-24T06:28:20.920Z,13.27
2023-02-24T06:30:49.554Z,12.97
2023-02-24T06:33:18.417Z,13.33
2023-02-24T06:35:47.402Z,13.30
2023-02-24T06:38:15.927Z,14.40
2023-02-24T06:40:44.182Z,13.63
2023-02-24T06:43:12.456Z,13.47
2023-02-24T06:45:42.242Z,13.97
2023-02-24T06:48:12.030Z,13.60
2023-02-24T06:50:42.132Z,14.27
2023-02-24T06:53:17.121Z,14.80
2023-02-24T06:55:46.715Z,15.03
2023-02-24T06:58:19.029Z,15.60
2023-02-24T07:00:56.890Z,15.33
2023-02-24T07:03:39.260Z,14.57
2023-02-24T07:06:24.766Z,15.13
2023-02-24T07:08:53.951Z,15.23
2023-02-24T07:11:22.753Z,15.50
2023-02-24T07:13:53.919Z,16.30
2023-02-24T07:16:25.472Z,17.70
2023-02-24T07:18:56.840Z,18.63
2023-02-24T07:21:27.133Z,18.17
2023-02-24T07:23:58.952Z,17.60
2023-02-24T07:26:30.456Z,18.07
2023-02-24T07:28:59.715Z,17.80
2023-02-24T07:31:29.509Z,18.20
2023-02-24T07:33:58.115Z,19.20
2023-02-24T07:36:30.136Z,18.90
2023-02-24T07:39:01.691Z,18.40
2023-02-24T07:41:31.438Z,19.67
2023-02-24T07:44:03.262Z,19.23
2023-02-24T07:46:33.584Z,19.30
2023-02-24T07:49:03.712Z,20.37
2023-02-24T07:51:32.351Z,20.00
2023-02-24T07:54:03.059Z,19.23
2023-02-24T07:56:33.078Z,20.30
2023-02-24T07:59:03.498Z,26.53
2023-02-24T08:01:39.182Z,30.00
2023-02-24T08:04:12.470Z,30.63
2023-02-24T08:06:46.176Z,30.63
2023-02-24T08:09:20.726Z,28.57
2023-02-24T08:11:52.471Z,35.57
2023-02-24T08:14:23.649Z,49.37
2023-02-24T08:16:59.641Z,45.23
2023-02-24T08:19:33.283Z,40.63
2023-02-24T08:22:19.437Z,43.37
2023-02-24T08:24:50.213Z,43.60
2023-02-24T08:27:20.266Z,51.93
2023-02-24T08:30:00.307Z,72.47
2023-02-24T08:32:35.935Z,88.70
2023-02-24T08:35:06.563Z,82.47
2023-02-24T08:37:39.840Z,64.80
2023-02-24T08:40:29.737Z,45.80
2023-02-24T08:42:59.679Z,34.17
2023-02-24T08:45:28.888Z,26.27
2023-02-24T08:48:00.702Z,25.17
2023-02-24T08:50:32.723Z,22.33
2023-02-24T08:53:01.734Z,19.30
2023-02-24T08:55:33.097Z,18.73
2023-02-24T08:58:02.545Z,17.73
2023-02-24T09:00:49.553Z,17.47
2023-02-24T09:03:29.092Z,17.70
2023-02-24T09:06:03.324Z,17.30
2023-02-24T09:08:33.834Z,18.23
2023-02-24T09:11:08.032Z,17.87
2023-02-24T09:13:37.372Z,17.20
2023-02-24T09:16:06.620Z,19.30
2023-02-24T09:18:39.462Z,18.37
2023-02-24T09:21:32.693Z,19.23
2023-02-24T09:24:03.490Z,18.07
2023-02-24T09:26:43.275Z,16.30
2023-02-24T09:29:33.742Z,16.63
2023-02-24T09:32:05.869Z,16.67
2023-02-24T09:34:44.200Z,13.83
2023-02-24T09:37:25.120Z,14.70
2023-02-24T09:40:14.458Z,15.60
2023-02-24T09:42:48.360Z,17.40
2023-02-24T09:45:33.187Z,16.00
2023-02-24T09:48:10.519Z,15.97
2023-02-24T09:51:04.679Z,14.73
2023-02-24T09:53:41.978Z,13.80
2023-02-24T09:56:22.243Z,12.87
2023-02-24T09:58:58.623Z,12.53
2023-02-24T10:01:43.114Z,10.53
2023-02-24T10:04:36.307Z,11.40
2023-02-24T10:07:11.439Z,11.97
2023-02-24T10:09:43.761Z,12.13
2023-02-24T10:12:19.799Z,15.23
2023-02-24T10:14:53.282Z,23.80
2023-02-24T10:17:30.782Z,31.40
2023-02-24T10:20:02.609Z,26.53
2023-02-24T10:22:51.526Z,23.23
2023-02-24T10:25:40.112Z,16.63
2023-02-24T10:28:23.126Z,14.27
2023-02-24T10:31:04.262Z,15.77
2023-02-24T10:33:38.957Z,15.33
2023-02-24T10:36:10.377Z,14.27
2023-02-24T10:38:45.719Z,14.37
2023-02-24T10:41:15.533Z,16.50
2023-02-24T10:43:56.086Z,17.20
2023-02-24T10:46:42.978Z,17.77
2023-02-24T10:49:16.620Z,17.67
2023-02-24T10:51:53.244Z,16.50
2023-02-24T10:54:45.221Z,17.03
2023-02-24T10:57:18.857Z,16.97
2023-02-24T11:00:19.745Z,19.67
2023-02-24T11:03:11.371Z,20.40
2023-02-24T11:06:05.573Z,18.07
2023-02-24T11:08:44.240Z,18.27
2023-02-24T11:11:25.934Z,17.30
2023-02-24T11:14:12.450Z,17.67
2023-02-24T11:17:03.535Z,18.13
2023-02-24T11:19:34.743Z,19.53
2023-02-24T11:22:03.985Z,20.07
2023-02-24T11:24:32.442Z,21.50
2023-02-24T11:27:04.334Z,20.97
2023-02-24T11:29:47.991Z,19.03
2023-02-24T11:32:38.274Z,18.53
2023-02-24T11:35:19.262Z,15.53
2023-02-24T11:37:56.752Z,16.07
2023-02-24T11:40:27.718Z,20.33
2023-02-24T11:43:02.150Z,19.20
2023-02-24T11:45:34.945Z,17.23
2023-02-24T11:48:15.035Z,18.00
2023-02-24T11:50:48.499Z,17.30
2023-02-24T11:53:29.115Z,16.20
2023-02-24T11:56:03.392Z,17.03
2023-02-24T11:58:41.429Z,16.30
2023-02-24T12:01:16.175Z,16.37
2023-02-24T12:03:53.799Z,15.90
2023-02-24T12:06:27.639Z,14.80
2023-02-24T12:09:02.066Z,16.17
2023-02-24T12:11:39.760Z,16.13
2023-02-24T12:14:20.317Z,16.40
2023-02-24T12:16:55.317Z,15.70
2023-02-24T12:19:31.468Z,16.07
2023-02-24T12:22:05.967Z,15.77
2023-02-24T12:24:37.076Z,15.67
2023-02-24T12:27:13.345Z,15.70
2023-02-24T12:29:54.706Z,15.63
2023-02-24T12:32:41.405Z,14.90
2023-02-24T12:35:20.069Z,15.90
2023-02-24T12:38:00.076Z,15.90
2023-02-24T12:40:40.689Z,15.33
2023-02-24T12:43:18.042Z,15.60
2023-02-24T12:45:56.725Z,14.40
2023-02-24T12:48:44.064Z,13.80
2023-02-24T12:51:22.326Z,14.37
2023-02-24T12:54:00.796Z,13.90
2023-02-24T12:56:36.551Z,13.03
2023-02-24T12:59:07.674Z,12.73
2023-02-24T13:01:46.010Z,12.23
2023-02-24T13:04:30.649Z,12.90
2023-02-24T13:07:09.964Z,11.80
2023-02-24T13:09:46.660Z,13.17
2023-02-24T13:12:21.520Z,11.63
2023-02-24T13:14:51.531Z,12.50
2023-02-24T13:17:23.868Z,12.10
2023-02-24T13:19:55.401Z,11.53
2023-02-24T13:22:27.685Z,12.03
2023-02-24T13:25:03.536Z,10.60
2023-02-24T13:27:34.953Z,12.27
2023-02-24T13:30:08.429Z,11.50
2023-02-24T13:32:40.002Z,12.83
2023-02-24T13:35:33.620Z,14.27
2023-02-24T13:38:34.180Z,14.57
2023-02-24T13:41:09.965Z,15.50
2023-02-24T13:43:38.407Z,15.70
2023-02-24T13:46:19.777Z,14.90
2023-02-24T13:49:04.576Z,15.27
2023-02-24T13:51:59.691Z,14.67
2023-02-24T13:54:51.383Z,14.83
2023-02-24T13:57:48.995Z,14.83
2023-02-24T14:00:28.319Z,14.57
2023-02-24T14:02:57.810Z,14.90
2023-02-24T14:05:33.179Z,14.43
2023-02-24T14:08:02.293Z,14.17
2023-02-24T14:10:34.781Z,15.23
2023-02-24T14:13:07.653Z,14.77
2023-02-24T14:15:36.793Z,15.13
2023-02-24T14:18:06.917Z,17.30
2023-02-24T14:20:39.885Z,20.10
2023-02-24T14:23:24.349Z,19.30
2023-02-24T14:25:55.995Z,20.80
2023-02-24T14:28:26.793Z,20.33
2023-02-24T14:30:58.385Z,24.00
2023-02-24T14:33:32.159Z,22.43
2023-02-24T14:36:03.040Z,22.33
2023-02-24T14:38:36.641Z,21.07
2023-02-24T14:41:07.618Z,19.87
2023-02-24T14:43:43.034Z,20.17
2023-02-24T14:46:11.468Z,22.43
2023-02-24T14:48:39.853Z,21.03
2023-02-24T14:51:12.906Z,21.60
2023-02-24T14:53:47.039Z,19.97
2023-02-24T14:56:15.703Z,18.87
2023-02-24T14:58:47.127Z,19.27
2023-02-24T15:01:22.043Z,17.90
2023-02-24T15:03:52.428Z,17.10
2023-02-24T15:06:26.021Z,17.57
2023-02-24T15:08:59.601Z,16.77
2023-02-24T15:11:29.985Z,17.23
2023-02-24T15:14:00.375Z,15.53
2023-02-24T15:16:34.705Z,15.70
2023-02-24T15:19:03.129Z,15.67
2023-02-24T15:21:34.449Z,15.23
2023-02-24T15:24:04.257Z,15.80
2023-02-24T15:26:35.308Z,15.97
2023-02-24T15:29:13.486Z,16.10
2023-02-24T15:31:47.559Z,19.23
2023-02-24T15:34:21.096Z,19.83
2023-02-24T15:36:53.210Z,19.23
2023-02-24T15:39:24.761Z,18.13
2023-02-24T15:41:53.878Z,17.37
2023-02-24T15:44:27.566Z,16.87
2023-02-24T15:46:56.485Z,16.17
2023-02-24T15:49:24.832Z,17.27
2023-02-24T15:51:55.922Z,16.93
2023-02-24T15:54:30.383Z,16.80
2023-02-24T15:57:00.172Z,18.63
2023-02-24T15:59:29.529Z,19.27
2023-02-24T16:01:58.205Z,20.03
2023-02-24T16:04:27.625Z,20.87
2023-02-24T16:06:58.872Z,22.53
2023-02-24T16:09:33.624Z,22.00
2023-02-24T16:12:06.014Z,23.03
2023-02-24T16:14:35.022Z,20.03
2023-02-24T16:17:08.974Z,20.37
2023-02-24T16:19:38.260Z,19.50
2023-02-24T16:22:07.944Z,20.20
2023-02-24T16:24:36.174Z,19.63
2023-02-24T16:27:04.523Z,19.80
2023-02-24T16:29:32.774Z,19.63
2023-02-24T16:32:01.256Z,18.40
2023-02-24T16:34:29.692Z,18.83
2023-02-24T16:36:57.980Z,20.50
2023-02-24T16:39:27.619Z,18.93
2023-02-24T16:41:55.867Z,22.57
2023-02-24T16:44:24.390Z,27.20
2023-02-24T16:46:53.388Z,32.10
2023-02-24T16:49:22.354Z,38.30
2023-02-24T16:51:50.644Z,42.43
2023-02-24T16:54:21.966Z,44.93
2023-02-24T16:56:52.188Z,48.43
2023-02-24T16:59:20.721Z,51.17
2023-02-24T17:01:49.362Z,58.43
2023-02-24T17:04:17.652Z,54.07
2023-02-24T17:06:45.964Z,52.13
2023-02-24T17:09:15.705Z,47.17
2023-02-24T17:11:44.937Z,49.17
2023-02-24T17:14:17.440Z,49.50
2023-02-24T17:16:46.046Z,51.87
2023-02-24T17:19:14.563Z,51.40
2023-02-24T17:21:45.507Z,51.00
2023-02-24T17:24:17.029Z,46.93
2023-02-24T17:26:45.280Z,44.70
2023-02-24T17:29:15.712Z,44.43
2023-02-24T17:31:44.148Z,42.63
2023-02-24T17:34:12.468Z,42.73
2023-02-24T17:36:40.737Z,42.73
2023-02-24T17:39:09.458Z,41.70
2023-02-24T17:41:38.697Z,41.03
2023-02-24T17:44:07.441Z,38.77
2023-02-24T17:46:37.190Z,38.77
2023-02-24T17:49:06.274Z,38.57
2023-02-24T17:51:34.661Z,42.63
2023-02-24T17:54:03.151Z,43.47
2023-02-24T17:56:31.440Z,41.53
2023-02-24T17:59:01.295Z,41.90
2023-02-24T18:01:29.815Z,48.43
2023-02-24T18:03:59.537Z,55.00
2023-02-24T18:06:27.799Z,62.67
2023-02-24T18:08:56.311Z,71.17
2023-02-24T18:11:24.790Z,73.60
2023-02-24T18:13:55.277Z,68.13
2023-02-24T18:16:23.912Z,60.67
2023-02-24T18:18:52.558Z,54.97
2023-02-24T18:21:22.251Z,53.57
2023-02-24T18:23:50.621Z,50.77
2023-02-24T18:26:18.976Z,40.03
2023-02-24T18:28:47.224Z,30.70
2023-02-24T18:31:17.377Z,27.20
2023-02-24T18:33:46.611Z,27.00
2023-02-24T18:36:15.527Z,27.03
2023-02-24T18:38:45.917Z,27.23
2023-02-24T18:41:17.178Z,28.40
2023-02-24T18:43:48.330Z,28.33
2023-02-24T18:46:18.761Z,29.37
2023-02-24T18:48:47.994Z,30.40
2023-02-24T18:51:19.282Z,31.80
2023-02-24T18:53:52.145Z,30.37
2023-02-24T18:56:23.746Z,32.27
2023-02-24T18:58:52.852Z,32.93
2023-02-24T19:01:23.574Z,28.90
2023-02-24T19:03:53.153Z,25.97
2023-02-24T19:06:22.108Z,26.43
2023-02-24T19:08:58.059Z,27.13
2023-02-24T19:11:27.168Z,26.20
2023-02-24T19:13:55.660Z,26.97
2023-02-24T19:16:24.542Z,26.23
2023-02-24T19:18:53.598Z,27.97
2023-02-24T19:21:22.036Z,25.93
2023-02-24T19:23:52.647Z,27.73
2023-02-24T19:26:23.579Z,27.00
2023-02-24T19:28:52.389Z,29.57
2023-02-24T19:31:22.491Z,26.50
2023-02-24T19:33:53.923Z,26.57
2023-02-24T19:36:22.917Z,31.10
2023-02-24T19:38:53.428Z,30.00
2023-02-24T19:41:22.152Z,26.17
2023-02-24T19:43:50.604Z,23.33
2023-02-24T19:46:19.259Z,27.10
2023-02-24T19:48:48.514Z,34.73
2023-02-24T19:51:18.730Z,34.30
2023-02-24T19:53:47.206Z,35.07
2023-02-24T19:56:16.881Z,37.50
2023-02-24T19:58:45.221Z,34.50
2023-02-24T20:01:14.834Z,34.23
2023-02-24T20:03:44.350Z,32.23
2023-02-24T20:06:19.544Z,35.63
2023-02-24T20:08:48.120Z,30.27
2023-02-24T20:11:18.732Z,29.17
2023-02-24T20:13:47.493Z,29.07
2023-02-24T20:16:17.626Z,29.17
2023-02-24T20:18:46.079Z,27.60
2023-02-24T20:21:15.213Z,26.47
2023-02-24T20:23:44.086Z,27.70
2023-02-24T20:26:16.363Z,28.43
2023-02-24T20:28:47.676Z,26.97
2023-02-24T20:31:18.651Z,23.73
2023-02-24T20:33:49.004Z,22.27
2023-02-24T20:36:19.015Z,23.67
2023-02-24T20:38:47.708Z,24.43
2023-02-24T20:41:16.218Z,29.43
2023-02-24T20:43:45.871Z,31.20
2023-02-24T20:46:16.107Z,36.33
2023-02-24T20:48:45.143Z,30.40
2023-02-24T20:51:13.818Z,27.57
2023-02-24T20:53:55.918Z,24.37
2023-02-24T20:56:25.926Z,23.00
2023-02-24T20:59:00.054Z,22.43
2023-02-24T21:01:29.702Z,21.17
2023-02-24T21:03:58.367Z,21.37
2023-02-24T21:06:27.765Z,22.37
2023-02-24T21:08:56.359Z,19.73
2023-02-24T21:11:25.161Z,20.13
2023-02-24T21:13:55.517Z,21.30
2023-02-24T21:16:24.814Z,22.30
2023-02-24T21:18:53.356Z,22.13
2023-02-24T21:21:22.020Z,22.97
2023-02-24T21:23:51.527Z,24.67
2023-02-24T21:26:20.971Z,23.07
2023-02-24T21:28:49.655Z,25.03
2023-02-24T21:31:21.794Z,23.90
2023-02-24T21:33:53.645Z,25.10
2023-02-24T21:36:25.812Z,24.97
2023-02-24T21:38:54.962Z,25.80
2023-02-24T21:41:23.761Z,24.03
2023-02-24T21:43:54.927Z,21.70
2023-02-24T21:46:28.582Z,22.17
2023-02-24T21:48:57.695Z,23.30
2023-02-24T21:51:27.209Z,24.27
2023-02-24T21:53:56.859Z,25.57
2023-02-24T21:56:27.256Z,22.50
2023-02-24T21:58:58.289Z,19.63
2023-02-24T22:01:30.022Z,18.63
2023-02-24T22:04:00.231Z,16.80
2023-02-24T22:06:31.731Z,16.60
2023-02-24T22:09:01.583Z,16.60
2023-02-24T22:11:32.493Z,18.17
2023-02-24T22:14:01.313Z,17.07
2023-02-24T22:16:32.091Z,19.13
2023-02-24T22:19:01.194Z,18.67
2023-02-24T22:21:30.958Z,17.67
2023-02-24T22:24:01.488Z,16.43
2023-02-24T22:26:31.155Z,16.80
2023-02-24T22:29:00.797Z,20.43
2023-02-24T22:31:32.891Z,19.00
2023-02-24T22:34:02.344Z,17.87
2023-02-24T22:36:33.697Z,16.67
2023-02-24T22:39:03.116Z,17.00
2023-02-24T22:41:34.412Z,16.37
2023-02-24T22:44:04.566Z,15.50
2023-02-24T22:46:36.539Z,14.87
2023-02-24T22:49:05.716Z,16.03
2023-02-24T22:51:34.443Z,15.37
2023-02-24T22:54:03.194Z,15.23
2023-02-24T22:56:32.375Z,15.53
2023-02-24T22:59:01.973Z,14.83
2023-02-24T23:01:34.089Z,14.90
2023-02-24T23:04:03.528Z,15.77
2023-02-24T23:06:33.176Z,15.93
2023-02-24T23:09:03.404Z,16.53
2023-02-24T23:11:33.141Z,18.27
2023-02-24T23:14:03.655Z,22.67
2023-02-24T23:16:35.775Z,23.20
2023-02-24T23:19:06.134Z,23.13
2023-02-24T23:21:36.407Z,26.83
2023-02-24T23:24:05.726Z,28.97
2023-02-24T23:26:35.893Z,30.60
2023-02-24T23:29:06.162Z,31.27
2023-02-24T23:31:36.304Z,31.77
2023-02-24T23:34:07.127Z,32.00
2023-02-24T23:36:36.653Z,33.37
2023-02-24T23:39:05.420Z,34.87
2023-02-24T23:41:34.932Z,35.07
2023-02-24T23:44:03.601Z,34.37
2023-02-24T23:46:36.299Z,34.40
2023-02-24T23:49:05.239Z,36.77
2023-02-24T23:51:46.963Z,36.50
2023-02-24T23:54:15.656Z,37.93
2023-02-24T23:56:43.909Z,37.37
2023-02-24T23:59:12.396Z,37.07
